Sammamish, Washington
Current Conditions -  °F | °C
As of 1:53 PM on Saturday 25 Oct 2014 (Local Time) from KRNT Reporting Station
Overcast Overcast  
Wind Chill: 57°   Ceiling: 7500
Heat Index: 57°   Visibility: 10mi
Dew Point: 54°   Wind: 7mph
Humidity: 89%   Direction: 300°WNW
Pressure: 29.33"   Gusts: NA
Location:  47.63°N, 122.03°W
Report Text: KRNT 252053Z 30006KT 10SM OVC075 14/12 A2933 RMK AO2 RAE16 SLP936 P0001 60001 T01390122 56034
Loading
Personal Weather Stations






























Interactive Weather Map
Tropical Storm Tracking
New forecast layout! Learn more

10-Day Weather Forecast

Advertisements
Track Severe Weather on mobile